Time;durP1;ratioP1;P1;durP2;ratioP2;P2;SDS_P1;SDS_P2;PMS_P1;PMS_P2;Temp;Humidity;BMP_temperature;BMP_pressure;BME280_temperature;BME280_humidity;BME280_pressure;Samples;Min_cycle;Max_cycle;Signal;HPM_P1;HPM_P2
2021/05/28 00:00:42;;;;;;;8.70;6.30;;;13.60;1.00;;;;;;5111488;28;20177;-67
2021/05/28 00:03:07;;;;;;;6.97;6.27;;;13.50;1.00;;;;;;5106691;28;20367;-66
2021/05/28 00:05:33;;;;;;;6.60;6.00;;;13.60;1.00;;;;;;5103647;28;20174;-65
2021/05/28 00:07:58;;;;;;;6.87;6.17;;;13.50;1.00;;;;;;5111523;28;20197;-65
2021/05/28 00:10:24;;;;;;;6.80;6.00;;;13.40;1.00;;;;;;5091584;28;20194;-66
2021/05/28 00:12:50;;;;;;;6.00;5.50;;;13.50;1.00;;;;;;5107183;28;20515;-66
2021/05/28 00:15:16;;;;;;;8.77;6.33;;;13.50;1.00;;;;;;5106452;28;20250;-65
2021/05/28 00:17:43;;;;;;;6.73;5.93;;;13.60;1.00;;;;;;5110315;28;20432;-66
2021/05/28 00:20:13;;;;;;;7.27;6.00;;;13.50;1.00;;;;;;5111515;28;20178;-66
2021/05/28 00:22:40;;;;;;;6.43;5.77;;;13.40;1.00;;;;;;5108443;28;20448;-66
2021/05/28 00:25:06;;;;;;;6.27;5.73;;;13.40;1.00;;;;;;5110714;28;20769;-66
2021/05/28 00:27:32;;;;;;;6.03;5.30;;;13.30;1.00;;;;;;5109773;28;20552;-65
2021/05/28 00:30:01;;;;;;;8.37;6.17;;;13.40;1.00;;;;;;5109376;28;20896;-64
2021/05/28 00:32:27;;;;;;;6.37;5.73;;;13.30;1.00;;;;;;5105646;28;20185;-64
2021/05/28 00:34:52;;;;;;;5.90;5.27;;;13.40;1.00;;;;;;5109822;28;20442;-63
2021/05/28 00:37:18;;;;;;;9.37;6.40;;;13.40;1.00;;;;;;5111287;28;20469;-65
2021/05/28 00:39:44;;;;;;;6.23;5.73;;;13.30;1.00;;;;;;5109946;28;20191;-65
2021/05/28 00:42:10;;;;;;;6.73;6.00;;;13.30;1.00;;;;;;5111181;28;20445;-64
2021/05/28 00:44:38;;;;;;;7.97;5.80;;;13.50;1.00;;;;;;5088840;28;20958;-65
2021/05/28 00:47:04;;;;;;;5.57;5.07;;;13.40;1.00;;;;;;5111040;28;20737;-65
2021/05/28 00:49:30;;;;;;;6.30;5.70;;;13.30;1.00;;;;;;5105388;28;20445;-65
2021/05/28 00:51:55;;;;;;;7.33;5.97;;;13.30;1.00;;;;;;5110079;28;20451;-66
2021/05/28 00:54:21;;;;;;;6.20;5.60;;;13.20;1.00;;;;;;5088899;28;20192;-65
2021/05/28 00:56:47;;;;;;;6.57;5.90;;;13.20;1.00;;;;;;5102924;28;20205;-64
2021/05/28 00:59:15;;;;;;;7.97;6.47;;;13.20;1.00;;;;;;5109161;28;20206;-66
2021/05/28 01:01:41;;;;;;;7.40;5.53;;;13.20;1.00;;;;;;5110879;28;20434;-66
2021/05/28 01:04:07;;;;;;;6.67;5.60;;;13.40;1.00;;;;;;5106241;28;20429;-64
2021/05/28 01:06:33;;;;;;;7.00;6.30;;;13.40;1.00;;;;;;5096187;28;20216;-65
2021/05/28 01:08:58;;;;;;;9.87;6.20;;;13.30;1.00;;;;;;5109079;28;20955;-65
2021/05/28 01:11:24;;;;;;;8.10;6.23;;;13.30;1.00;;;;;;5104900;28;20185;-65
2021/05/28 01:13:50;;;;;;;7.10;5.63;;;13.40;1.00;;;;;;5110849;28;20184;-65
2021/05/28 01:16:16;;;;;;;7.07;6.33;;;13.40;1.00;;;;;;5110857;28;20446;-64
2021/05/28 01:18:42;;;;;;;8.30;6.10;;;13.30;1.00;;;;;;5110831;28;20501;-65
2021/05/28 01:21:08;;;;;;;13.07;7.20;;;13.40;1.00;;;;;;5083505;28;20511;-65
2021/05/28 01:23:36;;;;;;;6.20;5.60;;;13.40;1.00;;;;;;5109845;28;20211;-66
2021/05/28 01:26:02;;;;;;;8.47;6.40;;;13.40;1.00;;;;;;5109640;28;20432;-64
2021/05/28 01:28:27;;;;;;;8.50;6.83;;;13.50;1.00;;;;;;5108396;27;20778;-64
2021/05/28 01:30:53;;;;;;;10.70;6.70;;;13.50;1.00;;;;;;5114147;28;20409;-65
2021/05/28 01:33:18;;;;;;;7.13;6.30;;;13.50;1.00;;;;;;5104081;28;20239;-65
2021/05/28 01:35:44;;;;;;;7.23;6.53;;;13.30;1.00;;;;;;5112438;28;20224;-66
2021/05/28 01:38:10;;;;;;;7.03;6.17;;;13.30;1.00;;;;;;5114044;28;20260;-66
2021/05/28 01:40:35;;;;;;;7.10;6.40;;;13.30;1.00;;;;;;5112843;28;20382;-65
2021/05/28 01:43:01;;;;;;;9.37;7.00;;;13.30;1.00;;;;;;5113248;28;20595;-64
2021/05/28 01:45:26;;;;;;;7.90;7.10;;;13.40;1.00;;;;;;5110093;28;20259;-65
2021/05/28 01:47:52;;;;;;;7.47;6.70;;;13.30;1.00;;;;;;5114154;28;20204;-65
2021/05/28 01:50:18;;;;;;;7.30;6.53;;;13.30;1.00;;;;;;5109912;28;20211;-64
2021/05/28 01:52:45;;;;;;;9.43;6.50;;;13.30;1.00;;;;;;5111412;28;20193;-64
2021/05/28 01:55:13;;;;;;;6.77;6.07;;;13.30;1.00;;;;;;5109082;28;20215;-63
2021/05/28 01:57:39;;;;;;;8.30;7.00;;;13.30;1.00;;;;;;5095481;28;20467;-65
2021/05/28 02:00:12;;;;;;;7.17;6.30;;;13.40;1.00;;;;;;5110479;28;20594;-65
2021/05/28 02:02:38;;;;;;;7.43;6.33;;;13.30;1.00;;;;;;5109106;28;20181;-65
2021/05/28 02:05:05;;;;;;;7.40;5.50;;;13.30;1.00;;;;;;5113704;28;20523;-64
2021/05/28 02:07:30;;;;;;;6.90;6.00;;;13.30;1.00;;;;;;5113824;28;20978;-64
2021/05/28 02:09:56;;;;;;;6.60;6.00;;;13.30;1.00;;;;;;5104631;28;20452;-65
2021/05/28 02:12:22;;;;;;;6.67;5.93;;;13.50;1.00;;;;;;5113403;28;20192;-65
2021/05/28 02:14:48;;;;;;;6.93;5.27;;;13.40;1.00;;;;;;5113719;28;20248;-64
2021/05/28 02:17:13;;;;;;;6.03;5.43;;;13.40;1.00;;;;;;5091228;28;20482;-64
2021/05/28 02:19:39;;;;;;;5.93;5.43;;;13.30;1.00;;;;;;5091453;28;20896;-65
2021/05/28 02:22:10;;;;;;;6.10;5.30;;;13.20;1.00;;;;;;5110329;28;20256;-65
2021/05/28 02:24:35;;;;;;;6.10;5.50;;;13.20;1.00;;;;;;5111145;28;20186;-65
2021/05/28 02:27:01;;;;;;;6.73;5.73;;;13.20;1.00;;;;;;5104391;28;20452;-65
2021/05/28 02:29:26;;;;;;;5.90;5.30;;;13.20;1.00;;;;;;5108014;28;20277;-64
2021/05/28 02:31:52;;;;;;;7.60;6.27;;;13.20;1.00;;;;;;5110442;28;20182;-65
2021/05/28 02:34:17;;;;;;;6.33;5.73;;;13.20;1.00;;;;;;5112005;28;20556;-64
2021/05/28 02:36:43;;;;;;;7.10;6.30;;;13.30;1.00;;;;;;5091094;28;20320;-64
2021/05/28 02:39:09;;;;;;;8.33;7.00;;;14.80;1.00;;;;;;5095602;28;20225;-66
2021/05/28 02:41:36;;;;;;;9.00;6.97;;;13.30;1.00;;;;;;5112459;28;20206;-65
2021/05/28 02:44:03;;;;;;;9.90;6.20;;;13.30;1.00;;;;;;5113427;28;20430;-65
2021/05/28 02:46:31;;;;;;;7.47;6.17;;;13.20;1.00;;;;;;5095059;28;20245;-65
2021/05/28 02:48:56;;;;;;;6.90;6.30;;;13.20;1.00;;;;;;5112573;28;20450;-64
2021/05/28 02:51:22;;;;;;;7.23;6.00;;;13.20;1.00;;;;;;5110749;28;20498;-65
2021/05/28 02:53:47;;;;;;;7.30;6.50;;;13.20;1.00;;;;;;5104190;28;20195;-65
2021/05/28 02:56:13;;;;;;;7.50;6.60;;;13.20;1.00;;;;;;5086707;28;20188;-65
2021/05/28 02:58:39;;;;;;;7.10;6.40;;;13.30;1.00;;;;;;5112850;28;20188;-65
2021/05/28 03:01:04;;;;;;;6.73;6.00;;;13.20;1.00;;;;;;5093144;28;20610;-64
2021/05/28 03:03:30;;;;;;;6.90;6.17;;;13.20;1.00;;;;;;5093661;28;20219;-65
2021/05/28 03:05:55;;;;;;;8.30;7.53;;;13.30;1.00;;;;;;5110614;28;20185;-64
2021/05/28 03:08:21;;;;;;;8.90;8.00;;;13.30;1.00;;;;;;5111824;28;20889;-66
2021/05/28 03:10:47;;;;;;;8.90;7.70;;;13.20;1.00;;;;;;5106244;28;20179;-64
2021/05/28 03:13:13;;;;;;;8.77;7.70;;;13.30;1.00;;;;;;5112213;28;20540;-65
2021/05/28 03:15:39;;;;;;;11.30;7.83;;;13.30;1.00;;;;;;5112675;28;20483;-65
2021/05/28 03:18:12;;;;;;;9.47;8.50;;;13.30;1.00;;;;;;5112801;28;20479;-64
2021/05/28 03:20:37;;;;;;;10.00;7.90;;;13.30;1.00;;;;;;5110875;28;20435;-64
2021/05/28 03:23:06;;;;;;;10.20;7.00;;;13.30;1.00;;;;;;5110499;28;20451;-65
2021/05/28 03:25:32;;;;;;;8.87;7.73;;;13.20;1.00;;;;;;5111694;28;20191;-65
2021/05/28 03:27:57;;;;;;;9.33;7.73;;;13.20;1.00;;;;;;5103176;28;20454;-64
2021/05/28 03:30:23;;;;;;;11.07;7.90;;;13.30;1.00;;;;;;5109687;28;20200;-65
2021/05/28 03:32:49;;;;;;;9.50;8.40;;;13.30;1.00;;;;;;5111804;28;20181;-65
2021/05/28 03:35:14;;;;;;;8.33;7.53;;;13.30;1.00;;;;;;5094706;28;20457;-65
2021/05/28 03:37:40;;;;;;;9.47;8.57;;;13.30;1.00;;;;;;5097964;28;20224;-65
2021/05/28 03:40:08;;;;;;;9.47;8.40;;;13.40;1.00;;;;;;5112181;28;20189;-65
2021/05/28 03:42:34;;;;;;;11.03;7.80;;;13.40;1.00;;;;;;5106636;28;20450;-65
2021/05/28 03:45:00;;;;;;;11.70;8.70;;;13.40;1.00;;;;;;5086403;28;20446;-64
2021/05/28 03:47:26;;;;;;;9.50;7.87;;;13.20;1.00;;;;;;5110487;28;20615;-64
2021/05/28 03:49:51;;;;;;;8.70;7.90;;;13.30;1.00;;;;;;5110579;28;20221;-66
2021/05/28 03:52:17;;;;;;;9.17;7.80;;;13.30;1.00;;;;;;5101806;28;20196;-65
2021/05/28 03:54:42;;;;;;;9.87;8.40;;;13.30;1.00;;;;;;5109148;28;20567;-66
2021/05/28 03:57:08;;;;;;;8.97;8.03;;;13.20;1.00;;;;;;5109019;28;20290;-65
2021/05/28 03:59:34;;;;;;;9.27;7.87;;;13.30;1.00;;;;;;5112387;27;20228;-65
2021/05/28 04:02:00;;;;;;;8.60;7.70;;;13.20;1.00;;;;;;5110853;28;20297;-65
2021/05/28 04:04:25;;;;;;;9.40;8.00;;;13.30;1.00;;;;;;5113198;27;20483;-62
2021/05/28 04:06:51;;;;;;;9.20;8.23;;;16.40;1.00;;;;;;5110418;28;20218;-63
2021/05/28 04:09:16;;;;;;;9.83;7.83;;;13.30;1.00;;;;;;5111500;28;20221;-64
2021/05/28 04:11:42;;;;;;;10.20;8.90;;;13.20;1.00;;;;;;5110947;28;20224;-62
2021/05/28 04:14:08;;;;;;;9.93;8.63;;;13.10;1.00;;;;;;5104965;28;20194;-63
2021/05/28 04:16:33;;;;;;;9.43;8.40;;;13.20;1.00;;;;;;5093368;28;20213;-62
2021/05/28 04:18:59;;;;;;;9.30;8.50;;;13.10;1.00;;;;;;5111940;27;20271;-61
2021/05/28 04:21:25;;;;;;;9.93;7.50;;;13.10;1.00;;;;;;5092857;28;20205;-62
2021/05/28 04:23:50;;;;;;;11.83;8.67;;;13.10;1.00;;;;;;5110932;28;20547;-61
2021/05/28 04:26:16;;;;;;;10.70;9.23;;;13.20;1.00;;;;;;5087466;28;20450;-67
2021/05/28 04:28:41;;;;;;;10.03;9.03;;;13.10;1.00;;;;;;5108877;28;20176;-66
2021/05/28 04:31:07;;;;;;;10.30;9.10;;;13.20;1.00;;;;;;5109809;28;20270;-67
2021/05/28 04:33:33;;;;;;;10.50;8.63;;;13.20;1.00;;;;;;5107567;28;20346;-67
2021/05/28 04:35:58;;;;;;;8.90;8.10;;;13.20;1.00;;;;;;5109233;28;20457;-66
2021/05/28 04:38:24;;;;;;;8.80;7.90;;;13.20;1.00;;;;;;5098407;28;20207;-67
2021/05/28 04:40:50;;;;;;;9.70;8.70;;;13.20;1.00;;;;;;5081953;28;20521;-67
2021/05/28 04:43:16;;;;;;;13.07;11.70;;;13.20;1.00;;;;;;5108525;28;20514;-67
2021/05/28 04:45:42;;;;;;;8.40;7.60;;;13.30;1.00;;;;;;5108110;28;20491;-68
2021/05/28 04:48:07;;;;;;;9.90;8.53;;;13.30;1.00;;;;;;5111057;28;20321;-68
2021/05/28 04:50:33;;;;;;;11.90;8.50;;;13.30;1.00;;;;;;5105326;28;20189;-69
2021/05/28 04:53:00;;;;;;;9.50;8.60;;;13.30;1.00;;;;;;5111034;28;20692;-68
2021/05/28 04:55:27;;;;;;;9.77;8.87;;;13.40;1.00;;;;;;5106265;28;20541;-69
2021/05/28 04:57:53;;;;;;;8.80;7.90;;;13.30;1.00;;;;;;5111089;28;20787;-67
2021/05/28 05:00:20;;;;;;;11.00;9.00;;;13.30;1.00;;;;;;5111254;28;20814;-68
2021/05/28 05:02:46;;;;;;;10.77;9.67;;;13.40;1.00;;;;;;5110285;28;20518;-67
2021/05/28 05:05:13;;;;;;;10.83;9.73;;;13.30;1.00;;;;;;5114969;28;20615;-67
2021/05/28 05:07:38;;;;;;;10.90;9.90;;;13.20;1.00;;;;;;5110040;28;20453;-67
2021/05/28 05:10:05;;;;;;;10.70;9.60;;;13.20;1.00;;;;;;5114876;28;20445;-68
2021/05/28 05:12:31;;;;;;;10.90;9.80;;;13.20;1.00;;;;;;5115228;28;20336;-68
2021/05/28 05:14:56;;;;;;;10.87;9.80;;;13.10;1.00;;;;;;5114676;28;20564;-69
2021/05/28 05:17:22;;;;;;;10.93;9.80;;;13.10;1.00;;;;;;5114605;28;20212;-68
2021/05/28 05:19:48;;;;;;;11.90;10.67;;;13.10;1.00;;;;;;5114085;28;20325;-69
2021/05/28 05:22:13;;;;;;;14.33;11.43;;;16.50;1.00;;;;;;5109667;28;20186;-68
2021/05/28 05:24:39;;;;;;;12.80;11.40;;;13.10;1.00;;;;;;5115584;28;20442;-69
2021/05/28 05:27:05;;;;;;;16.40;13.23;;;13.10;1.00;;;;;;5115675;27;20185;-68
2021/05/28 05:29:31;;;;;;;11.67;10.47;;;13.20;1.00;;;;;;5111607;28;20217;-69
2021/05/28 05:31:56;;;;;;;13.03;8.97;;;13.10;1.00;;;;;;5096429;27;20473;-68
2021/05/28 05:34:22;;;;;;;12.20;11.10;;;13.10;1.00;;;;;;5111426;28;20619;-68
2021/05/28 05:36:47;;;;;;;12.20;11.00;;;13.00;1.00;;;;;;5106694;28;20230;-69
2021/05/28 05:39:13;;;;;;;11.23;10.00;;;12.80;1.00;;;;;;5100600;28;20191;-67
2021/05/28 05:41:39;;;;;;;11.90;10.37;;;12.80;1.00;;;;;;5100083;28;20205;-67
2021/05/28 05:44:05;;;;;;;11.40;9.90;;;12.80;1.00;;;;;;5107236;28;20190;-68
2021/05/28 05:46:30;;;;;;;12.40;10.57;;;12.80;1.00;;;;;;5076417;28;20630;-67
2021/05/28 05:48:56;;;;;;;9.73;8.70;;;12.80;1.00;;;;;;5088058;28;20489;-68
2021/05/28 05:51:21;;;;;;;9.23;8.43;;;12.90;1.00;;;;;;5108689;28;20621;-67
2021/05/28 05:53:47;;;;;;;9.40;8.40;;;12.90;1.00;;;;;;5109677;28;20235;-68
2021/05/28 05:56:13;;;;;;;12.70;9.10;;;12.80;1.00;;;;;;5109740;28;20177;-66
2021/05/28 05:58:40;;;;;;;7.50;6.90;;;12.70;18.40;;;;;;5113046;27;20623;-67
2021/05/28 06:01:06;;;;;;;8.07;7.27;;;12.50;19.90;;;;;;5106994;28;21003;-67
2021/05/28 06:03:32;;;;;;;7.30;6.23;;;12.50;82.70;;;;;;5110705;28;20530;-67
2021/05/28 06:05:57;;;;;;;8.27;6.90;;;12.60;99.90;;;;;;5112044;28;20670;-67
2021/05/28 06:08:23;;;;;;;7.93;7.13;;;12.80;99.90;;;;;;5114008;28;20199;-65
2021/05/28 06:10:48;;;;;;;7.07;6.37;;;13.00;94.60;;;;;;5113606;28;20693;-66
2021/05/28 06:13:14;;;;;;;6.70;6.10;;;13.20;59.20;;;;;;5094979;28;20543;-66
2021/05/28 06:15:40;;;;;;;7.43;6.63;;;13.30;48.20;;;;;;5111750;27;20194;-67
2021/05/28 06:18:05;;;;;;;8.33;6.20;;;13.30;36.00;;;;;;5086426;28;20665;-66
2021/05/28 06:20:31;;;;;;;6.23;5.70;;;13.40;25.80;;;;;;5112000;28;20183;-67
2021/05/28 06:22:57;;;;;;;6.23;5.67;;;13.30;7.90;;;;;;5113756;28;20185;-65
2021/05/28 06:25:22;;;;;;;6.23;5.70;;;13.30;10.30;;;;;;5113363;27;20185;-65
2021/05/28 06:27:48;;;;;;;6.50;5.90;;;13.40;11.40;;;;;;5109211;28;20530;-65
2021/05/28 06:30:16;;;;;;;5.53;5.03;;;13.30;6.10;;;;;;5106188;28;20270;-67
2021/05/28 06:32:41;;;;;;;5.30;4.87;;;13.30;1.00;;;;;;5094815;28;20181;-67
2021/05/28 06:35:07;;;;;;;5.63;5.23;;;13.30;1.00;;;;;;5113312;28;20939;-66
2021/05/28 06:37:33;;;;;;;7.00;4.83;;;13.40;1.00;;;;;;5113611;28;20225;-65
2021/05/28 06:39:59;;;;;;;5.23;4.80;;;;;;;;;;5111668;28;20476;-66
2021/05/28 06:42:24;;;;;;;7.73;5.50;;;13.50;1.00;;;;;;5092484;28;20233;-67
2021/05/28 06:44:50;;;;;;;8.27;4.97;;;13.60;1.00;;;;;;5107788;28;20470;-65
2021/05/28 06:47:17;;;;;;;5.37;4.87;;;13.60;1.00;;;;;;5109449;27;20237;-65
2021/05/28 06:49:43;;;;;;;6.70;6.10;;;13.50;1.00;;;;;;5093140;28;20181;-66
2021/05/28 06:52:09;;;;;;;6.40;5.60;;;13.60;1.00;;;;;;5106537;28;20451;-66
2021/05/28 06:54:35;;;;;;;7.27;6.57;;;13.80;1.00;;;;;;5111727;28;20187;-66
2021/05/28 06:57:01;;;;;;;5.57;5.10;;;14.10;1.00;;;;;;5094621;28;20454;-67
2021/05/28 06:59:26;;;;;;;6.90;6.20;;;13.80;1.00;;;;;;5094510;28;20492;-67
2021/05/28 07:01:54;;;;;;;6.50;5.90;;;;;;;;;;5103084;28;20217;-67
2021/05/28 07:04:20;;;;;;;6.70;6.10;;;13.80;1.00;;;;;;5111856;28;20182;-66
2021/05/28 07:06:45;;;;;;;8.23;5.90;;;13.80;1.00;;;;;;5085469;28;20912;-66
2021/05/28 07:09:11;;;;;;;6.37;5.87;;;13.70;1.00;;;;;;5112609;28;20569;-68
2021/05/28 07:11:37;;;;;;;6.20;5.60;;;13.70;1.00;;;;;;5103149;28;20196;-66
2021/05/28 07:14:02;;;;;;;6.43;5.83;;;13.80;1.00;;;;;;5112671;28;20209;-70
2021/05/28 07:16:28;;;;;;;6.57;5.97;;;13.90;1.00;;;;;;5113514;27;20446;-66
2021/05/28 07:18:54;;;;;;;6.73;6.13;;;14.10;1.00;;;;;;5111838;28;20344;-71
2021/05/28 07:21:22;;;;;;;6.53;5.93;;;14.20;1.00;;;;;;5099341;28;20245;-69
2021/05/28 07:23:48;;;;;;;7.37;6.60;;;14.30;1.00;;;;;;5103458;28;20435;-69
2021/05/28 07:26:14;;;;;;;6.67;5.97;;;14.40;1.00;;;;;;5093380;28;20447;-71
2021/05/28 07:28:39;;;;;;;8.70;8.00;;;14.50;1.00;;;;;;5106746;28;20682;-67
2021/05/28 07:31:05;;;;;;;6.80;6.20;;;14.70;1.00;;;;;;5112581;28;20221;-67
2021/05/28 07:33:30;;;;;;;6.30;5.63;;;14.80;1.00;;;;;;5112247;28;20185;-67
2021/05/28 07:35:56;;;;;;;6.40;5.90;;;15.10;1.00;;;;;;5108005;28;20220;-68
2021/05/28 07:38:21;;;;;;;6.73;6.13;;;15.40;1.00;;;;;;5110060;28;20217;-65
2021/05/28 07:40:47;;;;;;;6.13;5.63;;;15.50;1.00;;;;;;5111940;28;20210;-67
2021/05/28 07:43:12;;;;;;;6.60;6.10;;;15.70;1.00;;;;;;5112578;28;20190;-66
2021/05/28 07:45:39;;;;;;;6.90;6.30;;;15.80;1.00;;;;;;5111746;28;20257;-66
2021/05/28 07:48:05;;;;;;;6.80;6.20;;;15.70;1.00;;;;;;5087638;28;20198;-66
2021/05/28 07:50:46;;;;;;;7.07;6.47;;;16.00;1.00;;;;;;5107089;28;20456;-65
2021/05/28 07:53:13;;;;;;;6.27;5.60;;;16.20;1.00;;;;;;5106322;27;21001;-68
2021/05/28 07:55:39;;;;;;;6.77;6.00;;;16.00;1.00;;;;;;5110287;28;20428;-65
2021/05/28 07:58:05;;;;;;;7.30;6.03;;;15.90;1.00;;;;;;5096019;28;20442;-66
2021/05/28 08:00:30;;;;;;;6.87;6.37;;;15.80;1.00;;;;;;5093609;28;20515;-66
2021/05/28 08:02:56;;;;;;;6.50;5.90;;;15.60;1.00;;;;;;5111634;28;20224;-66
2021/05/28 08:05:21;;;;;;;6.40;5.83;;;15.70;1.00;;;;;;5111854;28;20679;-65
2021/05/28 08:07:48;;;;;;;6.63;6.10;;;15.90;1.00;;;;;;5109729;28;20269;-66
2021/05/28 08:10:14;;;;;;;6.30;5.80;;;16.00;1.00;;;;;;5107746;28;20185;-66
2021/05/28 08:12:40;;;;;;;6.00;5.17;;;16.00;1.00;;;;;;5092910;28;20415;-65
2021/05/28 08:15:06;;;;;;;6.73;6.13;;;16.10;1.00;;;;;;5097367;28;20452;-65
2021/05/28 08:17:32;;;;;;;6.20;5.70;;;15.80;1.00;;;;;;5105529;28;20213;-65
2021/05/28 08:19:57;;;;;;;6.57;6.00;;;15.50;1.00;;;;;;5110516;28;20432;-66
2021/05/28 08:22:23;;;;;;;6.40;5.90;;;15.60;1.00;;;;;;5084244;28;20186;-66
2021/05/28 08:24:48;;;;;;;6.10;5.60;;;18.50;1.00;;;;;;5090628;28;20497;-65
2021/05/28 08:27:16;;;;;;;6.43;5.93;;;16.10;1.00;;;;;;5098722;28;20205;-66
2021/05/28 08:29:42;;;;;;;6.60;6.10;;;16.50;1.00;;;;;;5103762;28;20175;-65
2021/05/28 08:32:08;;;;;;;5.33;4.90;;;;;;;;;;5091095;28;20526;-65
2021/05/28 08:34:34;;;;;;;5.97;5.57;;;16.60;1.00;;;;;;5107816;28;20471;-65
2021/05/28 08:36:59;;;;;;;5.43;5.03;;;16.80;1.00;;;;;;5110809;28;20496;-66
2021/05/28 08:39:25;;;;;;;5.40;4.97;;;16.80;1.00;;;;;;5107048;27;20195;-66
2021/05/28 08:41:51;;;;;;;4.90;4.50;;;17.00;1.00;;;;;;5091994;28;20631;-66
2021/05/28 08:44:23;;;;;;;4.97;4.60;;;17.50;1.00;;;;;;5082003;28;20196;-66
2021/05/28 08:46:49;;;;;;;5.00;4.60;;;17.30;1.00;;;;;;5111390;28;20446;-65
2021/05/28 08:49:14;;;;;;;5.70;5.20;;;16.90;1.00;;;;;;5091841;28;20519;-66
2021/05/28 08:51:40;;;;;;;4.77;4.33;;;16.40;1.00;;;;;;5091559;28;20194;-67
2021/05/28 08:54:06;;;;;;;5.30;4.80;;;15.80;1.00;;;;;;5110287;28;20211;-65
2021/05/28 08:56:35;;;;;;;6.13;4.90;;;15.50;1.00;;;;;;5111421;28;20181;-66
2021/05/28 08:59:02;;;;;;;3.90;3.60;;;15.60;1.00;;;;;;5105802;28;20950;-66
2021/05/28 09:01:28;;;;;;;4.80;4.40;;;15.90;1.00;;;;;;5091142;28;20437;-66
2021/05/28 09:03:58;;;;;;;3.90;3.60;;;16.40;1.00;;;;;;5092779;28;20443;-67
2021/05/28 09:06:24;;;;;;;3.07;2.87;;;16.90;1.00;;;;;;5109697;28;20255;-65
2021/05/28 09:08:50;;;;;;;3.40;3.10;;;17.40;1.00;;;;;;5113760;28;20924;-66
2021/05/28 09:11:18;;;;;;;2.90;2.70;;;17.90;1.00;;;;;;5098869;28;20209;-66
2021/05/28 09:13:51;;;;;;;3.43;3.13;;;18.00;1.00;;;;;;5110843;28;20196;-64
2021/05/28 09:16:26;;;;;;;3.90;2.30;;;17.70;1.00;;;;;;5107424;28;20444;-64
2021/05/28 09:18:53;;;;;;;2.60;2.03;;;16.70;1.00;;;;;;5110495;28;20449;-65
2021/05/28 09:21:36;;;;;;;3.10;2.90;;;16.70;1.00;;;;;;5098951;28;21152;-65
2021/05/28 09:24:05;;;;;;;2.67;2.40;;;16.70;1.00;;;;;;5088745;28;20498;-65
2021/05/28 09:26:32;;;;;;;2.50;2.30;;;16.80;1.00;;;;;;5085546;28;20437;-66
2021/05/28 09:29:00;;;;;;;2.70;2.50;;;16.80;1.00;;;;;;5106575;28;20436;-66
2021/05/28 09:31:27;;;;;;;2.70;2.50;;;16.90;1.00;;;;;;5089779;28;20920;-66
2021/05/28 09:33:55;;;;;;;3.00;2.50;;;17.20;1.00;;;;;;5101125;28;20417;-67
2021/05/28 09:36:38;;;;;;;2.37;1.90;;;17.80;1.00;;;;;;5096256;28;20435;-67
2021/05/28 09:39:15;;;;;;;2.50;2.30;;;17.80;1.00;;;;;;5099093;28;20961;-68
2021/05/28 09:41:52;;;;;;;2.47;2.27;;;18.20;1.00;;;;;;5093094;28;21105;-67
2021/05/28 09:44:27;;;;;;;3.07;2.00;;;18.00;1.00;;;;;;5077065;28;20498;-67
2021/05/28 09:47:02;;;;;;;1.87;1.77;;;17.60;1.00;;;;;;5096554;28;20435;-67
2021/05/28 09:49:31;;;;;;;2.57;2.30;;;17.20;1.00;;;;;;5094577;28;20435;-66
2021/05/28 09:52:19;;;;;;;2.40;2.20;;;17.10;1.00;;;;;;5115091;28;20446;-66
2021/05/28 09:54:56;;;;;;;2.40;2.13;;;16.90;1.00;;;;;;5103271;28;20916;-65
2021/05/28 09:57:35;;;;;;;2.70;2.50;;;16.70;1.00;;;;;;5105573;28;20829;-66
2021/05/28 10:00:20;;;;;;;2.43;2.23;;;16.80;1.00;;;;;;5106054;28;20403;-66
2021/05/28 10:02:46;;;;;;;2.27;2.10;;;17.00;1.00;;;;;;5091161;28;20933;-66
2021/05/28 10:05:20;;;;;;;1.93;1.67;;;17.10;1.00;;;;;;5079333;28;20431;-67
2021/05/28 10:07:46;;;;;;;2.93;1.70;;;17.20;1.00;;;;;;5111874;27;20182;-66
2021/05/28 10:10:12;;;;;;;2.23;2.13;;;17.50;1.00;;;;;;5079228;28;20448;-66
2021/05/28 10:12:38;;;;;;;2.17;2.00;;;17.60;1.00;;;;;;5106393;28;20439;-65
2021/05/28 10:15:07;;;;;;;3.13;2.30;;;17.70;1.00;;;;;;5098687;28;20258;-66
2021/05/28 10:17:34;;;;;;;2.90;1.97;;;17.80;1.00;;;;;;5087515;28;20463;-67
2021/05/28 10:19:59;;;;;;;1.80;1.70;;;17.60;1.00;;;;;;5113407;28;20432;-66
2021/05/28 10:22:27;;;;;;;1.97;1.80;;;17.60;1.00;;;;;;5105192;28;20861;-66
2021/05/28 10:24:52;;;;;;;1.90;1.60;;;17.60;1.00;;;;;;5105649;28;20501;-66
2021/05/28 10:27:23;;;;;;;3.67;2.03;;;17.70;1.00;;;;;;5114304;28;20467;-65
2021/05/28 10:29:53;;;;;;;1.63;1.37;;;18.20;1.00;;;;;;5095610;28;20209;-66
2021/05/28 10:32:19;;;;;;;2.30;1.60;;;18.60;1.00;;;;;;5062407;28;20442;-65
2021/05/28 10:35:12;;;;;;;1.67;1.40;;;18.70;1.00;;;;;;5106933;28;20440;-67
2021/05/28 10:37:40;;;;;;;1.70;1.60;;;18.80;1.00;;;;;;5112389;27;20470;-67
2021/05/28 10:40:25;;;;;;;2.70;1.40;;;18.40;1.00;;;;;;5112494;28;20440;-66
2021/05/28 10:43:05;;;;;;;1.30;1.20;;;17.60;1.00;;;;;;5100758;28;20842;-66
2021/05/28 10:46:05;;;;;;;1.20;1.10;;;17.10;1.00;;;;;;5113270;28;20446;-67
2021/05/28 10:48:45;;;;;;;1.30;1.20;;;16.60;1.00;;;;;;5094874;28;20488;-65
2021/05/28 10:51:13;;;;;;;1.40;1.30;;;16.20;1.00;;;;;;5104821;28;20442;-68
2021/05/28 10:53:40;;;;;;;1.60;1.50;;;15.80;1.00;;;;;;5101851;28;20789;-68
2021/05/28 10:56:14;;;;;;;6.10;1.30;;;15.80;1.00;;;;;;5111608;28;20443;-69
2021/05/28 10:58:48;;;;;;;1.33;1.23;;;15.80;1.00;;;;;;5063750;28;20471;-67
2021/05/28 11:01:32;;;;;;;1.27;1.17;;;16.30;1.00;;;;;;5107362;28;20442;-66
2021/05/28 11:04:03;;;;;;;1.77;1.03;;;16.00;1.00;;;;;;5111430;28;20411;-67
2021/05/28 11:06:30;;;;;;;1.37;0.90;;;15.30;1.00;;;;;;5113355;27;20441;-67
2021/05/28 11:09:08;;;;;;;1.37;1.00;;;15.00;1.00;;;;;;5106662;27;20924;-67
2021/05/28 11:11:40;;;;;;;1.10;1.00;;;15.10;1.00;;;;;;5091592;28;20443;-66
2021/05/28 11:14:13;;;;;;;1.40;0.90;;;15.20;1.00;;;;;;5112157;28;20431;-66
2021/05/28 11:16:57;;;;;;;0.90;0.80;;;15.40;1.00;;;;;;5103917;28;20439;-69
2021/05/28 11:19:31;;;;;;;1.30;0.70;;;15.40;1.00;;;;;;5093237;28;20450;-67
2021/05/28 11:21:59;;;;;;;1.37;0.90;;;15.30;1.00;;;;;;5107904;28;20410;-67
2021/05/28 11:24:41;;;;;;;1.20;0.90;;;15.60;1.00;;;;;;5094108;28;20527;-67
2021/05/28 11:27:34;;;;;;;1.67;1.20;;;15.60;1.00;;;;;;5106587;28;20447;-67
2021/05/28 11:30:03;;;;;;;1.03;1.03;;;15.80;1.00;;;;;;5112731;28;20435;-67
2021/05/28 11:32:48;;;;;;;2.17;1.00;;;16.20;1.00;;;;;;5096890;28;20429;-67
2021/05/28 11:35:19;;;;;;;2.90;1.70;;;16.40;1.00;;;;;;5095575;27;20559;-67
2021/05/28 11:37:56;;;;;;;1.27;1.17;;;16.40;1.00;;;;;;5108971;27;20478;-66
2021/05/28 11:40:23;;;;;;;1.17;1.07;;;16.60;1.00;;;;;;5098569;27;20477;-67
2021/05/28 11:42:50;;;;;;;1.30;1.20;;;16.90;1.00;;;;;;5094261;27;20441;-68
2021/05/28 11:45:17;;;;;;;1.60;1.50;;;16.90;1.00;;;;;;5094640;28;20443;-67
2021/05/28 11:47:43;;;;;;;1.60;1.50;;;17.00;1.00;;;;;;5094964;28;20521;-66
2021/05/28 11:50:14;;;;;;;1.40;1.30;;;17.50;1.00;;;;;;5110263;28;20991;-67
2021/05/28 11:52:40;;;;;;;1.80;1.70;;;17.60;1.00;;;;;;5103069;28;20488;-67
2021/05/28 11:55:09;;;;;;;3.30;1.93;;;17.30;1.00;;;;;;5112093;28;20406;-67
2021/05/28 11:57:35;;;;;;;1.97;1.53;;;17.40;1.00;;;;;;5112274;28;20213;-67
2021/05/28 12:00:07;;;;;;;1.77;1.60;;;17.70;1.00;;;;;;5092478;28;20451;-67
2021/05/28 12:02:52;;;;;;;1.73;1.63;;;18.10;1.00;;;;;;5094123;28;20407;-69
2021/05/28 12:05:27;;;;;;;1.60;1.50;;;18.10;1.00;;;;;;5112051;28;20436;-67
2021/05/28 12:07:55;;;;;;;1.60;1.40;;;18.20;1.00;;;;;;5112156;28;20430;-67
2021/05/28 12:10:24;;;;;;;1.50;1.40;;;18.10;1.00;;;;;;5112385;28;20431;-66
2021/05/28 12:13:03;;;;;;;1.93;1.63;;;18.00;1.00;;;;;;5094726;27;20433;-66
2021/05/28 12:15:31;;;;;;;1.80;1.70;;;18.00;1.00;;;;;;5109807;28;20778;-67
2021/05/28 12:17:58;;;;;;;2.93;1.97;;;17.80;1.00;;;;;;5111683;28;20509;-67
2021/05/28 12:20:33;;;;;;;1.97;1.63;;;17.50;1.00;;;;;;5111810;28;20500;-67
2021/05/28 12:23:00;;;;;;;2.10;2.00;;;17.10;1.00;;;;;;5111628;28;20520;-67
2021/05/28 12:25:26;;;;;;;2.40;2.00;;;16.80;1.00;;;;;;5111347;28;20468;-68
2021/05/28 12:27:53;;;;;;;2.50;2.30;;;16.60;1.00;;;;;;5092591;28;20447;-66
2021/05/28 12:30:25;;;;;;;3.00;2.70;;;14.60;1.00;;;;;;5098365;28;20987;-67
2021/05/28 12:32:52;;;;;;;2.60;2.40;;;16.50;1.00;;;;;;5099933;28;20454;-67
2021/05/28 12:35:18;;;;;;;4.20;2.73;;;;;;;;;;5111331;28;20435;-68
2021/05/28 12:38:05;;;;;;;2.53;2.33;;;16.80;1.00;;;;;;5092481;28;20454;-67
2021/05/28 12:40:31;;;;;;;3.30;2.27;;;17.10;1.00;;;;;;5091322;28;20423;-67
2021/05/28 12:42:59;;;;;;;2.60;2.40;;;17.20;1.00;;;;;;5101899;28;20911;-66
2021/05/28 12:45:42;;;;;;;3.27;1.90;;;17.80;1.00;;;;;;5107384;28;20427;-67
2021/05/28 12:48:10;;;;;;;2.13;2.03;;;17.90;1.00;;;;;;5106165;28;20418;-67
2021/05/28 12:50:38;;;;;;;3.60;2.03;;;18.20;1.00;;;;;;5081291;28;20518;-67
2021/05/28 12:53:10;;;;;;;2.23;2.03;;;18.40;1.00;;;;;;5106555;28;20444;-68
2021/05/28 12:55:38;;;;;;;2.37;2.17;;;18.70;1.00;;;;;;5106582;28;20899;-66
2021/05/28 12:58:04;;;;;;;2.20;2.00;;;19.00;1.00;;;;;;5091506;28;20507;-67